createdAt,value
2022-12-04T00:00:21.940Z,0.00
2022-12-04T00:01:21.915Z,0.00
2022-12-04T00:02:21.910Z,0.00
2022-12-04T00:03:21.985Z,0.00
2022-12-04T00:04:21.966Z,0.00
2022-12-04T00:05:21.872Z,0.00
2022-12-04T00:06:21.872Z,0.00
2022-12-04T00:07:21.867Z,0.00
2022-12-04T00:08:21.845Z,0.00
2022-12-04T00:09:21.851Z,0.00
2022-12-04T00:10:21.860Z,0.00
2022-12-04T00:11:21.923Z,0.00
2022-12-04T00:12:21.810Z,0.00
2022-12-04T00:13:21.808Z,0.00
2022-12-04T00:14:21.791Z,0.00
2022-12-04T00:15:26.229Z,0.00
2022-12-04T00:16:21.813Z,0.00
2022-12-04T00:17:21.803Z,0.00
2022-12-04T00:18:21.765Z,0.00
2022-12-04T00:19:21.771Z,0.00
2022-12-04T00:20:21.732Z,0.00
2022-12-04T00:21:21.719Z,0.00
2022-12-04T00:22:21.769Z,0.00
2022-12-04T00:23:21.735Z,0.00
2022-12-04T00:24:21.730Z,0.00
2022-12-04T00:25:21.701Z,0.00
2022-12-04T00:26:21.674Z,0.00
2022-12-04T00:27:21.708Z,0.00
2022-12-04T00:28:21.664Z,0.00
2022-12-04T00:29:21.661Z,0.00
2022-12-04T00:30:21.644Z,0.00
2022-12-04T00:31:21.756Z,0.00
2022-12-04T00:32:21.632Z,0.00
2022-12-04T00:33:21.644Z,0.00
2022-12-04T00:34:21.642Z,0.00
2022-12-04T00:35:21.609Z,0.00
2022-12-04T00:36:21.604Z,0.00
2022-12-04T00:37:21.571Z,0.00
2022-12-04T00:38:21.587Z,0.00
2022-12-04T00:39:21.586Z,0.00
2022-12-04T00:40:21.544Z,0.00
2022-12-04T00:41:21.536Z,0.00
2022-12-04T00:42:21.523Z,0.00
2022-12-04T00:43:21.529Z,0.00
2022-12-04T00:44:21.512Z,0.00
2022-12-04T00:45:21.523Z,0.00
2022-12-04T00:46:21.553Z,0.00
2022-12-04T00:47:21.505Z,0.00
2022-12-04T00:48:21.465Z,0.00
2022-12-04T00:49:21.457Z,0.00
2022-12-04T00:50:21.449Z,0.00
2022-12-04T00:51:21.501Z,0.00
2022-12-04T00:52:21.431Z,0.00
2022-12-04T00:53:21.452Z,0.00
2022-12-04T00:54:21.457Z,0.00
2022-12-04T00:55:21.423Z,0.00
2022-12-04T00:56:21.473Z,0.00
2022-12-04T00:57:21.398Z,0.00
2022-12-04T00:58:21.453Z,0.00
2022-12-04T00:59:21.449Z,0.00
2022-12-04T01:00:21.360Z,0.00
2022-12-04T01:01:21.407Z,0.00
2022-12-04T01:02:21.353Z,0.00
2022-12-04T01:03:21.361Z,0.00
2022-12-04T01:04:21.313Z,0.00
2022-12-04T01:05:21.312Z,0.00
2022-12-04T01:06:21.304Z,0.00
2022-12-04T01:07:21.358Z,0.00
2022-12-04T01:08:21.296Z,0.00
2022-12-04T01:09:21.272Z,0.00
2022-12-04T01:10:21.285Z,0.00
2022-12-04T01:11:21.251Z,0.00
2022-12-04T01:12:21.323Z,0.00
2022-12-04T01:13:21.247Z,0.00
2022-12-04T01:14:21.217Z,0.00
2022-12-04T01:15:21.220Z,0.00
2022-12-04T01:16:21.287Z,0.00
2022-12-04T01:17:21.232Z,0.00
2022-12-04T01:18:21.197Z,0.00
2022-12-04T01:19:21.205Z,0.00
2022-12-04T01:20:21.163Z,0.00
2022-12-04T01:21:21.173Z,0.00
2022-12-04T01:22:21.169Z,0.00
2022-12-04T01:23:21.145Z,0.00
2022-12-04T01:24:21.180Z,0.00
2022-12-04T01:25:21.134Z,0.00
2022-12-04T01:26:21.106Z,0.00
2022-12-04T01:27:21.102Z,0.00
2022-12-04T01:28:21.096Z,0.00
2022-12-04T01:29:21.087Z,0.00
2022-12-04T01:30:21.114Z,0.00
2022-12-04T01:31:21.142Z,0.00
2022-12-04T01:32:21.050Z,0.00
2022-12-04T01:33:21.041Z,0.00
2022-12-04T01:34:21.052Z,0.00
2022-12-04T01:35:21.050Z,0.00
2022-12-04T01:36:21.036Z,0.00
2022-12-04T01:37:21.024Z,0.00
2022-12-04T01:38:21.019Z,0.00
2022-12-04T01:39:20.992Z,0.00
2022-12-04T01:40:20.983Z,0.00
2022-12-04T01:41:21.015Z,0.00
2022-12-04T01:42:20.968Z,0.00
2022-12-04T01:43:20.949Z,0.00
2022-12-04T01:44:20.932Z,0.00
2022-12-04T01:45:20.925Z,0.00
2022-12-04T01:46:20.992Z,0.00
2022-12-04T01:47:20.927Z,0.00
2022-12-04T01:48:20.896Z,0.00
2022-12-04T01:49:20.921Z,0.00
2022-12-04T01:50:20.942Z,0.00
2022-12-04T01:51:20.873Z,0.00
2022-12-04T01:52:20.926Z,0.00
2022-12-04T01:53:20.859Z,0.00
2022-12-04T01:54:20.851Z,0.00
2022-12-04T01:55:20.870Z,0.00
2022-12-04T01:56:20.827Z,0.00
2022-12-04T01:57:20.860Z,0.00
2022-12-04T01:58:20.797Z,0.00
2022-12-04T01:59:20.814Z,0.00
2022-12-04T02:00:20.806Z,0.00
2022-12-04T02:03:14.763Z,0.00
2022-12-04T02:04:15.683Z,0.00
2022-12-04T02:05:15.662Z,0.00
2022-12-04T02:06:15.701Z,0.00
2022-12-04T02:07:15.803Z,0.00
2022-12-04T02:08:15.790Z,0.00
2022-12-04T02:09:15.677Z,0.00
2022-12-04T02:10:15.657Z,0.00
2022-12-04T02:11:15.622Z,0.00
2022-12-04T02:12:15.650Z,0.00
2022-12-04T02:13:15.636Z,0.00
2022-12-04T02:14:15.613Z,0.00
2022-12-04T02:15:15.608Z,0.00
2022-12-04T02:16:15.700Z,0.00
2022-12-04T02:17:15.582Z,0.00
2022-12-04T02:18:15.602Z,0.00
2022-12-04T02:19:15.549Z,0.00
2022-12-04T02:20:15.579Z,0.00
2022-12-04T02:21:15.599Z,0.00
2022-12-04T02:22:15.540Z,0.00
2022-12-04T02:23:15.663Z,0.00
2022-12-04T02:24:15.523Z,0.00
2022-12-04T02:25:15.511Z,0.00
2022-12-04T02:26:15.603Z,0.00
2022-12-04T02:27:15.494Z,0.00
2022-12-04T02:28:15.474Z,0.00
2022-12-04T02:29:15.511Z,0.00
2022-12-04T02:30:15.458Z,0.00
2022-12-04T02:31:15.623Z,0.00
2022-12-04T02:32:22.018Z,0.00
2022-12-04T02:33:15.404Z,0.00
2022-12-04T02:34:15.389Z,0.00
2022-12-04T02:35:15.388Z,0.00
2022-12-04T02:36:15.386Z,0.00
2022-12-04T02:37:15.369Z,0.00
2022-12-04T02:38:15.369Z,0.00
2022-12-04T02:39:15.353Z,0.00
2022-12-04T02:40:15.332Z,0.00
2022-12-04T02:41:15.331Z,0.00
2022-12-04T02:42:15.328Z,0.00
2022-12-04T02:43:15.310Z,0.00
2022-12-04T02:44:15.309Z,0.00
2022-12-04T02:45:15.285Z,0.00
2022-12-04T02:46:15.340Z,0.00
2022-12-04T02:47:15.270Z,0.00
2022-12-04T02:48:15.269Z,0.00
2022-12-04T02:49:15.278Z,0.00
2022-12-04T02:50:15.244Z,0.00
2022-12-04T02:51:15.243Z,0.00
2022-12-04T02:52:15.219Z,0.00
2022-12-04T02:53:15.205Z,0.00
2022-12-04T02:54:15.202Z,0.00
2022-12-04T02:55:15.226Z,0.00
2022-12-04T02:56:15.183Z,0.00
2022-12-04T02:57:15.166Z,0.00
2022-12-04T02:58:15.241Z,0.00
2022-12-04T02:59:15.155Z,0.00
2022-12-04T03:00:15.154Z,0.00
2022-12-04T03:01:15.199Z,0.00
2022-12-04T03:02:15.208Z,0.00
2022-12-04T03:03:15.131Z,0.00
2022-12-04T03:04:15.127Z,0.00
2022-12-04T03:05:15.122Z,0.00
2022-12-04T03:06:15.109Z,0.00
2022-12-04T03:07:15.067Z,0.00
2022-12-04T03:08:15.098Z,0.00
2022-12-04T03:09:15.061Z,0.00
2022-12-04T03:10:15.088Z,0.00
2022-12-04T03:11:15.073Z,0.00
2022-12-04T03:12:15.063Z,0.00
2022-12-04T03:13:15.049Z,0.00
2022-12-04T03:14:15.036Z,0.00
2022-12-04T03:15:15.010Z,0.00
2022-12-04T03:16:15.094Z,0.00
2022-12-04T03:17:15.112Z,0.00
2022-12-04T03:18:14.981Z,0.00
2022-12-04T03:19:14.970Z,0.00
2022-12-04T03:20:14.969Z,0.00
2022-12-04T03:21:14.989Z,0.00
2022-12-04T03:22:14.931Z,0.00
2022-12-04T03:23:14.951Z,0.00
2022-12-04T03:24:14.919Z,0.00
2022-12-04T03:25:14.910Z,0.00
2022-12-04T03:26:14.926Z,0.00
2022-12-04T03:27:14.890Z,0.00
2022-12-04T03:28:14.875Z,0.00
2022-12-04T03:29:14.890Z,0.00
2022-12-04T03:30:14.886Z,0.00
2022-12-04T03:31:14.979Z,0.00
2022-12-04T03:32:14.861Z,0.00
2022-12-04T03:33:14.822Z,0.00
2022-12-04T03:34:14.836Z,0.00
2022-12-04T03:35:14.842Z,0.00
2022-12-04T03:36:14.847Z,0.00
2022-12-04T03:37:14.810Z,0.00
2022-12-04T03:38:14.792Z,0.00
2022-12-04T03:39:14.762Z,0.00
2022-12-04T03:40:14.814Z,0.00
2022-12-04T03:41:14.765Z,0.00
2022-12-04T03:42:14.848Z,0.00
2022-12-04T03:43:14.724Z,0.00
2022-12-04T03:44:14.843Z,0.00
2022-12-04T03:45:14.720Z,0.00
2022-12-04T03:46:14.791Z,0.00
2022-12-04T03:47:14.707Z,0.00
2022-12-04T03:48:18.176Z,0.00
2022-12-04T03:49:14.680Z,0.00
2022-12-04T03:50:14.683Z,0.00
2022-12-04T03:51:14.652Z,0.00
2022-12-04T03:52:14.649Z,0.00
2022-12-04T03:53:14.688Z,0.00
2022-12-04T03:54:14.662Z,0.00
2022-12-04T03:55:14.607Z,0.00
2022-12-04T03:56:14.602Z,0.00
2022-12-04T03:57:15.603Z,0.00
2022-12-04T03:58:14.593Z,0.00
2022-12-04T03:59:14.599Z,0.00
2022-12-04T04:00:14.562Z,0.00
2022-12-04T04:01:14.595Z,0.00
2022-12-04T04:02:14.584Z,0.00
2022-12-04T04:03:14.559Z,0.00
2022-12-04T04:04:14.558Z,0.00
2022-12-04T04:05:14.573Z,0.00
2022-12-04T04:06:14.519Z,0.00
2022-12-04T04:07:14.500Z,0.00
2022-12-04T04:08:14.541Z,0.00
2022-12-04T04:09:14.515Z,0.00
2022-12-04T04:10:14.542Z,0.00
2022-12-04T04:11:14.464Z,0.00
2022-12-04T04:12:14.455Z,0.00
2022-12-04T04:13:14.438Z,0.00
2022-12-04T04:14:14.507Z,0.00
2022-12-04T04:15:14.436Z,0.00
2022-12-04T04:16:14.530Z,0.00
2022-12-04T04:17:14.406Z,0.00
2022-12-04T04:18:14.402Z,0.00
2022-12-04T04:19:14.403Z,0.00
2022-12-04T04:20:14.409Z,0.00
2022-12-04T04:21:14.371Z,0.00
2022-12-04T04:22:14.369Z,0.00
2022-12-04T04:23:14.380Z,0.00
2022-12-04T04:24:14.401Z,0.00
2022-12-04T04:25:14.335Z,0.00
2022-12-04T04:26:14.343Z,0.00
2022-12-04T04:27:14.406Z,0.00
2022-12-04T04:28:14.319Z,0.00
2022-12-04T04:29:14.331Z,0.00
2022-12-04T04:30:14.284Z,0.00
2022-12-04T04:31:14.343Z,0.00
2022-12-04T04:32:14.298Z,0.00
2022-12-04T04:33:14.252Z,0.00
2022-12-04T04:34:14.259Z,0.00
2022-12-04T04:35:14.278Z,0.00
2022-12-04T04:36:14.253Z,0.00
2022-12-04T04:37:14.256Z,0.00
2022-12-04T04:38:14.214Z,0.00
2022-12-04T04:39:14.193Z,0.00
2022-12-04T04:40:14.226Z,0.00
2022-12-04T04:41:14.197Z,0.00
2022-12-04T04:42:14.189Z,0.00
2022-12-04T04:43:14.162Z,0.00
2022-12-04T04:44:14.157Z,0.00
2022-12-04T04:45:14.150Z,0.00
2022-12-04T04:46:14.203Z,0.00
2022-12-04T04:47:14.878Z,0.00
2022-12-04T04:48:14.120Z,0.00
2022-12-04T04:49:14.121Z,0.00
2022-12-04T04:50:14.091Z,0.00
2022-12-04T04:51:14.109Z,0.00
2022-12-04T04:52:14.104Z,0.00
2022-12-04T04:53:14.083Z,0.00
2022-12-04T04:54:14.057Z,0.00
2022-12-04T04:55:14.040Z,0.00
2022-12-04T04:56:14.028Z,0.00
2022-12-04T04:57:14.044Z,0.00
2022-12-04T04:58:14.026Z,0.00
2022-12-04T04:59:13.995Z,0.00
2022-12-04T05:00:14.006Z,0.00
2022-12-04T05:01:14.042Z,0.00
2022-12-04T05:02:14.050Z,0.00
2022-12-04T05:03:14.007Z,0.00
2022-12-04T05:04:13.950Z,0.00
2022-12-04T05:05:13.943Z,0.00
2022-12-04T05:06:13.936Z,0.00
2022-12-04T05:07:13.933Z,0.00
2022-12-04T05:08:14.710Z,0.00
2022-12-04T05:09:13.905Z,0.00
2022-12-04T05:10:13.893Z,0.00
2022-12-04T05:11:13.931Z,0.00
2022-12-04T05:12:13.872Z,0.00
2022-12-04T05:13:13.912Z,0.00
2022-12-04T05:14:13.857Z,0.00
2022-12-04T05:15:13.862Z,0.00
2022-12-04T05:16:13.972Z,0.00
2022-12-04T05:17:13.833Z,0.00
2022-12-04T05:18:13.839Z,0.00
2022-12-04T05:19:13.928Z,0.00
2022-12-04T05:20:13.826Z,0.00
2022-12-04T05:21:13.787Z,0.00
2022-12-04T05:22:13.778Z,0.00
2022-12-04T05:23:13.787Z,0.00
2022-12-04T05:24:13.752Z,0.00
2022-12-04T05:25:13.755Z,0.00
2022-12-04T05:26:13.763Z,0.00
2022-12-04T05:27:13.751Z,0.00
2022-12-04T05:28:13.782Z,0.00
2022-12-04T05:29:13.729Z,0.00
2022-12-04T05:30:13.722Z,0.00
2022-12-04T05:31:13.775Z,0.00
2022-12-04T05:32:13.678Z,0.00
2022-12-04T05:33:13.746Z,0.00
2022-12-04T05:34:13.705Z,0.00
2022-12-04T05:35:13.695Z,0.00
2022-12-04T05:36:13.663Z,0.00
2022-12-04T05:37:13.651Z,0.00
2022-12-04T05:38:13.651Z,0.00
2022-12-04T05:39:13.619Z,0.00
2022-12-04T05:40:13.614Z,0.00
2022-12-04T05:41:13.596Z,0.00
2022-12-04T05:42:13.617Z,0.00
2022-12-04T05:43:13.616Z,0.00
2022-12-04T05:44:13.559Z,0.00
2022-12-04T05:45:13.563Z,0.00
2022-12-04T05:46:13.621Z,0.00
2022-12-04T05:47:13.552Z,0.00
2022-12-04T05:48:13.562Z,0.00
2022-12-04T05:49:13.519Z,0.00
2022-12-04T05:50:13.512Z,0.00
2022-12-04T05:51:13.505Z,0.00
2022-12-04T05:52:13.517Z,0.00
2022-12-04T05:53:13.480Z,0.00
2022-12-04T05:54:13.582Z,0.00
2022-12-04T05:55:13.477Z,0.00
2022-12-04T05:56:13.563Z,0.00
2022-12-04T05:57:13.461Z,0.00
2022-12-04T05:58:13.455Z,0.00
2022-12-04T05:59:13.428Z,0.00
2022-12-04T06:00:13.434Z,0.00
2022-12-04T06:01:13.470Z,0.00
2022-12-04T06:02:13.440Z,0.00
2022-12-04T06:03:13.521Z,0.00
2022-12-04T06:04:13.402Z,0.00
2022-12-04T06:05:13.368Z,0.00
2022-12-04T06:06:19.244Z,0.00
2022-12-04T06:07:13.427Z,0.00
2022-12-04T06:08:13.417Z,0.00
2022-12-04T06:09:13.335Z,0.00
2022-12-04T06:10:13.419Z,0.00
2022-12-04T06:11:13.305Z,0.00
2022-12-04T06:12:13.318Z,0.00
2022-12-04T06:13:13.303Z,0.00
2022-12-04T06:14:13.328Z,0.00
2022-12-04T06:15:13.277Z,0.00
2022-12-04T06:16:13.301Z,0.00
2022-12-04T06:17:13.254Z,0.00
2022-12-04T06:18:13.245Z,0.00
2022-12-04T06:19:13.254Z,0.00
2022-12-04T06:20:13.322Z,0.00
2022-12-04T06:21:13.268Z,0.00
2022-12-04T06:22:13.208Z,0.00
2022-12-04T06:23:13.204Z,0.00
2022-12-04T06:24:13.192Z,0.00
2022-12-04T06:25:13.126Z,0.00
2022-12-04T06:26:13.200Z,0.00
2022-12-04T06:27:29.051Z,0.00
2022-12-04T06:28:13.145Z,0.00
2022-12-04T06:29:13.109Z,0.00
2022-12-04T06:30:13.086Z,0.00
2022-12-04T06:31:13.130Z,0.00
2022-12-04T06:32:19.486Z,0.00
2022-12-04T06:33:13.081Z,0.00
2022-12-04T06:34:13.059Z,0.00
2022-12-04T06:35:13.078Z,0.00
2022-12-04T06:36:13.021Z,0.00
2022-12-04T06:37:13.034Z,0.00
2022-12-04T06:38:13.006Z,0.00
2022-12-04T06:39:18.503Z,0.00
2022-12-04T06:40:12.990Z,0.00
2022-12-04T06:41:12.980Z,0.00
2022-12-04T06:42:12.955Z,0.00
2022-12-04T06:43:12.956Z,0.00
2022-12-04T06:44:12.951Z,0.00
2022-12-04T06:45:12.957Z,0.00
2022-12-04T06:46:12.992Z,0.00
2022-12-04T06:47:12.917Z,0.00
2022-12-04T06:48:12.926Z,0.00
2022-12-04T06:49:12.912Z,0.00
2022-12-04T06:50:12.909Z,0.00
2022-12-04T06:51:12.899Z,0.00
2022-12-04T06:52:12.863Z,0.00
2022-12-04T06:53:12.858Z,0.00
2022-12-04T06:54:12.837Z,0.00
2022-12-04T06:55:12.873Z,0.00
2022-12-04T06:56:12.827Z,0.00
2022-12-04T06:57:12.835Z,0.00
2022-12-04T06:58:12.823Z,0.00
2022-12-04T06:59:12.820Z,0.00
2022-12-04T07:00:12.788Z,0.00
2022-12-04T07:01:13.766Z,5.62
2022-12-04T07:02:13.706Z,5.62
2022-12-04T07:03:12.758Z,5.62
2022-12-04T07:04:12.778Z,5.62
2022-12-04T07:05:12.752Z,5.62
2022-12-04T07:06:12.730Z,5.62
2022-12-04T07:07:12.750Z,5.62
2022-12-04T07:08:12.790Z,5.62
2022-12-04T07:09:12.779Z,5.62
2022-12-04T07:10:12.682Z,5.62
2022-12-04T07:11:12.691Z,5.62
2022-12-04T07:12:12.672Z,5.62
2022-12-04T07:13:12.671Z,5.62
2022-12-04T07:14:12.665Z,11.25
2022-12-04T07:15:12.662Z,11.25
2022-12-04T07:16:12.681Z,11.25
2022-12-04T07:17:12.738Z,11.25
2022-12-04T07:18:12.620Z,11.25
2022-12-04T07:19:12.713Z,11.25
2022-12-04T07:20:12.618Z,11.25
2022-12-04T07:21:12.592Z,11.25
2022-12-04T07:22:12.591Z,11.25
2022-12-04T07:23:12.600Z,11.25
2022-12-04T07:24:12.561Z,11.25
2022-12-04T07:25:12.552Z,11.25
2022-12-04T07:26:12.540Z,11.25
2022-12-04T07:27:12.585Z,11.25
2022-12-04T07:28:12.510Z,11.25
2022-12-04T07:29:12.508Z,16.88
2022-12-04T07:30:15.711Z,16.88
2022-12-04T07:31:12.609Z,16.88
2022-12-04T07:32:12.570Z,16.88
2022-12-04T07:33:12.486Z,16.88
2022-12-04T07:34:12.463Z,16.88
2022-12-04T07:35:12.458Z,22.50
2022-12-04T07:36:12.457Z,22.50
2022-12-04T07:37:12.448Z,22.50
2022-12-04T07:38:12.427Z,22.50
2022-12-04T07:39:12.442Z,22.50
2022-12-04T07:40:12.411Z,22.50
2022-12-04T07:41:12.458Z,22.50
2022-12-04T07:42:12.455Z,22.50
2022-12-04T07:43:12.383Z,22.50
2022-12-04T07:44:12.380Z,28.12
2022-12-04T07:45:12.459Z,28.12
2022-12-04T07:46:12.387Z,28.12
2022-12-04T07:47:12.366Z,28.12
2022-12-04T07:48:12.419Z,28.12
2022-12-04T07:49:12.345Z,28.12
2022-12-04T07:50:12.377Z,28.12
2022-12-04T07:51:12.305Z,28.12
2022-12-04T07:52:12.298Z,28.12
2022-12-04T07:53:12.318Z,28.12
2022-12-04T07:54:12.291Z,33.75
2022-12-04T07:55:12.265Z,33.75
2022-12-04T07:56:12.286Z,28.12
2022-12-04T07:57:12.252Z,28.12
2022-12-04T07:58:12.244Z,28.12
2022-12-04T07:59:12.241Z,28.12
2022-12-04T08:00:12.247Z,28.12
2022-12-04T08:01:12.534Z,28.12
2022-12-04T08:02:12.224Z,33.75
2022-12-04T08:03:12.202Z,33.75
2022-12-04T08:04:12.261Z,33.75
2022-12-04T08:05:12.203Z,28.12
2022-12-04T08:06:12.151Z,33.75
2022-12-04T08:07:12.143Z,33.75
2022-12-04T08:08:12.186Z,33.75
2022-12-04T08:09:12.127Z,33.75
2022-12-04T08:10:12.111Z,33.75
2022-12-04T08:11:12.112Z,33.75
2022-12-04T08:12:13.099Z,33.75
2022-12-04T08:13:12.091Z,33.75
2022-12-04T08:14:12.093Z,33.75
2022-12-04T08:15:12.078Z,33.75
2022-12-04T08:16:12.075Z,33.75
2022-12-04T08:17:12.146Z,39.38
2022-12-04T08:18:12.043Z,39.38
2022-12-04T08:19:12.031Z,39.38
2022-12-04T08:20:12.023Z,39.38
2022-12-04T08:21:12.053Z,39.38
2022-12-04T08:22:12.012Z,39.38
2022-12-04T08:23:11.995Z,39.38
2022-12-04T08:24:12.018Z,39.38
2022-12-04T08:25:12.003Z,39.38
2022-12-04T08:26:11.980Z,39.38
2022-12-04T08:27:11.999Z,39.38
2022-12-04T08:28:11.952Z,39.38
2022-12-04T08:29:11.949Z,39.38
2022-12-04T08:30:11.924Z,39.38
2022-12-04T08:31:12.100Z,39.38
2022-12-04T08:32:11.905Z,39.38
2022-12-04T08:33:11.902Z,39.38
2022-12-04T08:34:11.915Z,45.00
2022-12-04T08:35:11.892Z,45.00
2022-12-04T08:36:12.035Z,39.38
2022-12-04T08:37:11.888Z,39.38
2022-12-04T08:38:11.855Z,39.38
2022-12-04T08:39:11.843Z,39.38
2022-12-04T08:40:11.867Z,39.38
2022-12-04T08:41:11.844Z,39.38
2022-12-04T08:42:11.879Z,39.38
2022-12-04T08:43:11.820Z,39.38
2022-12-04T08:44:11.831Z,39.38
2022-12-04T08:45:11.807Z,39.38
2022-12-04T08:46:11.873Z,39.38
2022-12-04T08:47:11.799Z,39.38
2022-12-04T08:48:11.779Z,39.38
2022-12-04T08:49:11.744Z,39.38
2022-12-04T08:50:11.762Z,39.38
2022-12-04T08:51:11.733Z,39.38
2022-12-04T08:52:11.732Z,45.00
2022-12-04T08:53:11.730Z,45.00
2022-12-04T08:54:11.761Z,45.00
2022-12-04T08:55:11.705Z,45.00
2022-12-04T08:56:11.677Z,45.00
2022-12-04T08:57:11.686Z,50.62
2022-12-04T08:58:11.721Z,50.62
2022-12-04T08:59:11.650Z,50.62
2022-12-04T09:00:11.703Z,56.25
2022-12-04T09:01:11.833Z,56.25
2022-12-04T09:02:11.633Z,50.62
2022-12-04T09:03:11.611Z,50.62
2022-12-04T09:04:11.635Z,50.62
2022-12-04T09:05:11.597Z,50.62
2022-12-04T09:06:11.589Z,56.25
2022-12-04T09:07:11.658Z,56.25
2022-12-04T09:08:11.629Z,56.25
2022-12-04T09:09:11.576Z,56.25
2022-12-04T09:10:11.540Z,61.88
2022-12-04T09:11:11.545Z,56.25
2022-12-04T09:12:11.624Z,56.25
2022-12-04T09:13:11.535Z,61.88
2022-12-04T09:14:11.501Z,61.88
2022-12-04T09:15:11.517Z,61.88
2022-12-04T09:16:11.550Z,67.50
2022-12-04T09:17:11.469Z,73.12
2022-12-04T09:18:11.547Z,84.38
2022-12-04T09:19:11.483Z,90.00
2022-12-04T09:20:11.471Z,101.25
2022-12-04T09:21:11.434Z,112.50
2022-12-04T09:22:11.485Z,118.12
2022-12-04T09:23:11.441Z,123.75
2022-12-04T09:24:11.431Z,118.12
2022-12-04T09:25:11.433Z,118.12
2022-12-04T09:26:11.389Z,118.12
2022-12-04T09:27:14.981Z,123.75
2022-12-04T09:28:11.381Z,129.38
2022-12-04T09:29:11.385Z,129.38
2022-12-04T09:30:11.358Z,123.75
2022-12-04T09:31:11.428Z,118.12
2022-12-04T09:32:11.341Z,118.12
2022-12-04T09:33:11.322Z,118.12
2022-12-04T09:34:11.337Z,118.12
2022-12-04T09:35:11.302Z,118.12
2022-12-04T09:36:11.296Z,118.12
2022-12-04T09:37:11.320Z,118.12
2022-12-04T09:38:11.301Z,118.12
2022-12-04T09:39:11.270Z,118.12
2022-12-04T09:40:11.248Z,118.12
2022-12-04T09:41:11.253Z,118.12
2022-12-04T09:42:11.285Z,123.75
2022-12-04T09:43:11.274Z,129.38
2022-12-04T09:44:11.298Z,135.00
2022-12-04T09:45:11.215Z,140.62
2022-12-04T09:46:11.271Z,140.62
2022-12-04T09:47:11.281Z,146.25
2022-12-04T09:48:11.212Z,151.88
2022-12-04T09:49:11.208Z,151.88
2022-12-04T09:50:11.236Z,140.62
2022-12-04T09:51:11.167Z,140.62
2022-12-04T09:52:11.159Z,140.62
2022-12-04T09:53:11.206Z,146.25
2022-12-04T09:54:11.137Z,157.50
2022-12-04T09:55:11.121Z,163.12
2022-12-04T09:56:11.141Z,157.50
2022-12-04T09:57:11.104Z,163.12
2022-12-04T09:58:11.119Z,151.88
2022-12-04T09:59:11.085Z,146.25
2022-12-04T10:00:11.201Z,135.00
2022-12-04T10:01:11.070Z,129.38
2022-12-04T10:02:11.118Z,123.75
2022-12-04T10:03:11.211Z,129.38
2022-12-04T10:04:11.193Z,129.38
2022-12-04T10:05:11.116Z,135.00
2022-12-04T10:06:11.021Z,135.00
2022-12-04T10:07:11.318Z,135.00
2022-12-04T10:08:11.097Z,135.00
2022-12-04T10:09:10.988Z,129.38
2022-12-04T10:10:11.007Z,129.38
2022-12-04T10:11:10.957Z,129.38
2022-12-04T10:12:10.939Z,118.12
2022-12-04T10:13:11.004Z,112.50
2022-12-04T10:14:10.943Z,112.50
2022-12-04T10:15:10.905Z,112.50
2022-12-04T10:16:10.989Z,112.50
2022-12-04T10:17:10.921Z,106.88
2022-12-04T10:18:10.882Z,106.88
2022-12-04T10:19:10.915Z,106.88
2022-12-04T10:20:10.866Z,112.50
2022-12-04T10:21:10.939Z,112.50
2022-12-04T10:22:10.844Z,112.50
2022-12-04T10:23:13.962Z,112.50
2022-12-04T10:24:10.824Z,118.12
2022-12-04T10:25:10.812Z,123.75
2022-12-04T10:26:10.853Z,118.12
2022-12-04T10:27:10.847Z,118.12
2022-12-04T10:28:10.776Z,118.12
2022-12-04T10:29:10.771Z,118.12
2022-12-04T10:30:10.799Z,118.12
2022-12-04T10:31:10.803Z,118.12
2022-12-04T10:32:10.764Z,112.50
2022-12-04T10:33:10.762Z,118.12
2022-12-04T10:34:10.770Z,112.50
2022-12-04T10:35:10.718Z,112.50
2022-12-04T10:36:10.725Z,112.50
2022-12-04T10:37:10.695Z,118.12
2022-12-04T10:38:10.706Z,123.75
2022-12-04T10:39:10.707Z,118.12
2022-12-04T10:40:10.664Z,118.12
2022-12-04T10:41:14.888Z,118.12
2022-12-04T10:42:10.665Z,112.50
2022-12-04T10:43:10.636Z,112.50
2022-12-04T10:44:10.643Z,112.50
2022-12-04T10:45:10.622Z,112.50
2022-12-04T10:46:10.671Z,112.50
2022-12-04T10:47:10.683Z,112.50
2022-12-04T10:48:10.611Z,118.12
2022-12-04T10:49:10.603Z,118.12
2022-12-04T10:50:10.591Z,118.12
2022-12-04T10:51:10.621Z,118.12
2022-12-04T10:52:10.704Z,118.12
2022-12-04T10:53:13.707Z,118.12
2022-12-04T10:54:10.536Z,118.12
2022-12-04T10:55:10.520Z,118.12
2022-12-04T10:56:10.551Z,118.12
2022-12-04T10:57:10.521Z,118.12
2022-12-04T10:58:10.506Z,118.12
2022-12-04T10:59:10.477Z,112.50
2022-12-04T11:00:10.495Z,112.50
2022-12-04T11:01:10.481Z,118.12
2022-12-04T11:02:10.577Z,118.12
2022-12-04T11:03:10.558Z,118.12
2022-12-04T11:04:10.426Z,123.75
2022-12-04T11:05:10.445Z,123.75
2022-12-04T11:06:10.452Z,118.12
2022-12-04T11:07:10.431Z,118.12
2022-12-04T11:08:11.755Z,118.12
2022-12-04T11:09:10.408Z,118.12
2022-12-04T11:10:10.414Z,118.12
2022-12-04T11:11:10.459Z,123.75
2022-12-04T11:12:10.418Z,123.75
2022-12-04T11:13:11.145Z,123.75
2022-12-04T11:14:10.345Z,129.38
2022-12-04T11:15:10.402Z,135.00
2022-12-04T11:16:10.389Z,135.00
2022-12-04T11:17:10.335Z,135.00
2022-12-04T11:18:10.308Z,129.38
2022-12-04T11:19:10.308Z,129.38
2022-12-04T11:20:10.277Z,129.38
2022-12-04T11:21:10.263Z,135.00
2022-12-04T11:22:10.304Z,135.00
2022-12-04T11:23:10.272Z,135.00
2022-12-04T11:24:10.238Z,135.00
2022-12-04T11:25:11.247Z,135.00
2022-12-04T11:26:10.244Z,140.62
2022-12-04T11:27:10.204Z,140.62
2022-12-04T11:28:22.527Z,140.62
2022-12-04T11:29:10.194Z,140.62
2022-12-04T11:30:10.201Z,146.25
2022-12-04T11:31:10.363Z,157.50
2022-12-04T11:32:10.328Z,168.75
2022-12-04T11:33:10.193Z,174.38
2022-12-04T11:34:10.176Z,180.00
2022-12-04T11:35:10.206Z,174.38
2022-12-04T11:36:10.173Z,168.75
2022-12-04T11:37:10.120Z,163.12
2022-12-04T11:38:10.117Z,163.12
2022-12-04T11:39:10.146Z,163.12
2022-12-04T11:40:10.105Z,168.75
2022-12-04T11:41:10.089Z,174.38
2022-12-04T11:42:10.121Z,174.38
2022-12-04T11:43:10.102Z,168.75
2022-12-04T11:44:10.068Z,185.62
2022-12-04T11:45:10.029Z,185.62
2022-12-04T11:46:10.095Z,174.38
2022-12-04T11:47:10.194Z,168.75
2022-12-04T11:48:09.996Z,163.12
2022-12-04T11:49:09.998Z,163.12
2022-12-04T11:50:10.010Z,168.75
2022-12-04T11:51:09.978Z,174.38
2022-12-04T11:52:09.979Z,174.38
2022-12-04T11:53:09.990Z,168.75
2022-12-04T11:54:09.956Z,168.75
2022-12-04T11:55:09.932Z,163.12
2022-12-04T11:56:09.950Z,163.12
2022-12-04T11:57:09.913Z,163.12
2022-12-04T11:58:09.929Z,163.12
2022-12-04T11:59:09.898Z,157.50
2022-12-04T12:00:09.891Z,163.12
2022-12-04T12:01:09.907Z,163.12
2022-12-04T12:02:09.987Z,168.75
2022-12-04T12:03:10.029Z,174.38
2022-12-04T12:04:09.873Z,180.00
2022-12-04T12:05:09.957Z,191.25
2022-12-04T12:06:09.865Z,196.88
2022-12-04T12:07:09.829Z,180.00
2022-12-04T12:08:09.825Z,174.38
2022-12-04T12:09:09.865Z,185.62
2022-12-04T12:10:09.833Z,202.50
2022-12-04T12:11:09.801Z,213.75
2022-12-04T12:12:09.816Z,208.12
2022-12-04T12:13:09.800Z,191.25
2022-12-04T12:14:09.803Z,174.38
2022-12-04T12:15:09.788Z,163.12
2022-12-04T12:16:09.775Z,157.50
2022-12-04T12:17:09.740Z,146.25
2022-12-04T12:18:09.786Z,151.88
2022-12-04T12:19:09.714Z,163.12
2022-12-04T12:20:09.702Z,180.00
2022-12-04T12:21:09.690Z,163.12
2022-12-04T12:22:09.682Z,157.50
2022-12-04T12:23:09.661Z,163.12
2022-12-04T12:24:09.659Z,168.75
2022-12-04T12:25:09.647Z,180.00
2022-12-04T12:26:09.640Z,151.88
2022-12-04T12:27:09.624Z,140.62
2022-12-04T12:28:09.624Z,140.62
2022-12-04T12:29:09.627Z,146.25
2022-12-04T12:30:09.598Z,146.25
2022-12-04T12:31:09.597Z,157.50
2022-12-04T12:32:09.651Z,146.25
2022-12-04T12:33:09.570Z,135.00
2022-12-04T12:34:09.590Z,123.75
2022-12-04T12:35:09.557Z,118.12
2022-12-04T12:36:09.570Z,118.12
2022-12-04T12:37:09.559Z,123.75
2022-12-04T12:38:09.533Z,118.12
2022-12-04T12:39:09.535Z,118.12
2022-12-04T12:40:09.526Z,118.12
2022-12-04T12:41:09.501Z,112.50
2022-12-04T12:42:09.471Z,106.88
2022-12-04T12:43:09.483Z,101.25
2022-12-04T12:44:09.471Z,101.25
2022-12-04T12:45:09.437Z,101.25
2022-12-04T12:46:09.517Z,101.25
2022-12-04T12:47:09.421Z,101.25
2022-12-04T12:48:09.431Z,95.62
2022-12-04T12:49:09.403Z,95.62
2022-12-04T12:50:09.441Z,101.25
2022-12-04T12:51:29.169Z,101.25
2022-12-04T12:52:09.387Z,101.25
2022-12-04T12:53:09.420Z,101.25
2022-12-04T12:54:09.395Z,106.88
2022-12-04T12:55:09.342Z,101.25
2022-12-04T12:56:12.965Z,95.62
2022-12-04T12:57:09.359Z,95.62
2022-12-04T12:58:09.324Z,101.25
2022-12-04T12:59:09.325Z,101.25
2022-12-04T13:00:09.324Z,101.25
2022-12-04T13:01:09.365Z,101.25